Time;durP1;ratioP1;P1;durP2;ratioP2;P2;SDS_P1;SDS_P2;PMS_P1;PMS_P2;Temp;Humidity;BMP_temperature;BMP_pressure;BME280_temperature;BME280_humidity;BME280_pressure;Samples;Min_cycle;Max_cycle;Signal;HPM_P1;HPM_P2
2022/11/15 00:03:02;;;;;;;28.00;13.60;;;;;;;4.46;100.00;98978.61;214246;1309;22912;-70
2022/11/15 00:08:23;;;;;;;32.30;14.30;;;;;;;4.48;100.00;98968.33;214177;1309;22493;-71
2022/11/15 00:13:48;;;;;;;24.00;12.00;;;;;;;4.45;100.00;98966.70;214195;1295;22473;-72
2022/11/15 00:19:09;;;;;;;26.00;12.20;;;;;;;4.38;100.00;98959.19;214398;1303;22481;-70
2022/11/15 00:24:29;;;;;;;23.10;11.40;;;;;;;4.28;100.00;98950.33;214153;1309;22475;-70
2022/11/15 00:29:50;;;;;;;28.20;13.00;;;;;;;4.24;100.00;98941.26;214077;1309;22955;-71
2022/11/15 00:35:10;;;;;;;32.70;15.50;;;;;;;4.23;100.00;98936.52;214057;1308;23084;-72
2022/11/15 00:40:31;;;;;;;25.10;12.70;;;;;;;4.22;100.00;98930.83;214244;1309;25346;-71
2022/11/15 00:45:52;;;;;;;29.20;13.80;;;;;;;4.15;100.00;98921.81;214235;1308;22470;-72
2022/11/15 00:51:12;;;;;;;24.10;11.60;;;;;;;4.07;100.00;98920.84;214184;1309;22538;-70
2022/11/15 00:56:33;;;;;;;21.40;11.20;;;;;;;4.01;100.00;98917.52;214113;1309;22638;-70
2022/11/15 01:01:54;;;;;;;33.60;14.40;;;;;;;3.95;100.00;98915.63;214040;1309;22467;-71
2022/11/15 01:07:15;;;;;;;30.30;13.10;;;;;;;3.90;100.00;98907.13;214054;1309;22486;-71
2022/11/15 01:12:36;;;;;;;24.30;12.60;;;;;;;3.87;100.00;98898.27;214210;1309;25435;-70
2022/11/15 01:17:56;;;;;;;22.40;11.50;;;;;;;3.85;100.00;98900.41;214114;1309;23254;-72
2022/11/15 01:23:17;;;;;;;27.90;12.80;;;;;;;3.80;100.00;98897.63;214047;1283;24105;-71
2022/11/15 01:28:40;;;;;;;33.90;14.90;;;;;;;3.78;100.00;98894.20;214085;1309;25257;-70
2022/11/15 01:34:01;;;;;;;27.70;13.10;;;;;;;3.73;100.00;98886.70;214237;1309;25382;-70
2022/11/15 01:39:21;;;;;;;;;;;;;;;3.68;100.00;98878.09;214082;1309;25267;-70
2022/11/15 01:44:49;;;;;;;26.80;11.80;;;;;;;3.62;100.00;98870.10;214228;1309;22689;-71
2022/11/15 01:50:14;;;;;;;26.30;12.50;;;;;;;3.55;100.00;98861.16;214190;1309;24280;-71
2022/11/15 01:55:35;;;;;;;27.20;12.60;;;;;;;3.48;100.00;98850.70;214171;1309;24260;-71
2022/11/15 02:00:55;;;;;;;28.90;13.70;;;;;;;3.42;100.00;98854.09;214300;1309;22534;-71
2022/11/15 02:06:17;;;;;;;28.40;13.80;;;;;;;3.41;100.00;98848.48;214119;1309;25457;-71
2022/11/15 02:11:37;;;;;;;24.20;12.20;;;;;;;3.39;100.00;98850.28;214178;1309;24496;-70
2022/11/15 02:17:20;;;;;;;31.80;14.50;;;;;;;3.35;100.00;98846.14;214250;1309;25220;-71
2022/11/15 02:23:18;;;;;;;30.20;14.00;;;;;;;3.33;100.00;98835.57;214161;1309;25214;-70
2022/11/15 02:28:44;;;;;;;30.10;14.80;;;;;;;3.32;100.00;98827.98;214203;1309;22473;-70
2022/11/15 02:34:20;;;;;;;31.50;14.70;;;;;;;3.33;100.00;98826.61;214128;1304;22937;-71
2022/11/15 02:39:59;;;;;;;32.60;14.60;;;;;;;3.34;100.00;98823.56;214233;1309;22750;-70
2022/11/15 02:45:30;;;;;;;31.50;14.60;;;;;;;3.32;100.00;98819.30;214089;1299;23744;-70
2022/11/15 02:50:51;;;;;;;;;;;;;;;3.30;100.00;98821.31;214118;1307;22462;-71
2022/11/15 02:56:12;;;;;;;22.90;12.40;;;;;;;3.21;100.00;98812.02;214161;1309;23260;-70
2022/11/15 03:02:01;;;;;;;24.10;9.80;;;;;;;3.17;100.00;98806.17;214148;1309;22483;-71
2022/11/15 03:08:00;;;;;;;26.60;12.20;;;;;;;3.11;100.00;98797.45;214191;1308;22599;-69
2022/11/15 03:13:31;;;;;;;24.00;9.70;;;;;;;3.08;100.00;98794.95;214088;1309;22619;-70
2022/11/15 03:19:17;;;;;;;32.70;15.20;;;;;;;3.06;100.00;98787.20;214216;1308;22504;-70
2022/11/15 03:24:38;;;;;;;27.00;12.50;;;;;;;3.02;100.00;98787.61;214231;1309;22499;-71
2022/11/15 03:30:02;;;;;;;34.00;14.20;;;;;;;2.93;100.00;98784.38;214111;1309;22483;-70
2022/11/15 03:35:25;;;;;;;29.50;14.20;;;;;;;2.85;100.00;98775.98;213987;1309;22470;-70
2022/11/15 03:40:55;;;;;;;31.70;14.20;;;;;;;2.78;100.00;98766.38;214113;1309;22490;-70
2022/11/15 03:46:41;;;;;;;20.80;10.20;;;;;;;2.78;100.00;98763.31;214137;1309;22547;-70
2022/11/15 03:52:04;;;;;;;31.30;13.10;;;;;;;2.76;100.00;98755.88;214131;1309;22768;-71
2022/11/15 03:57:25;;;;;;;24.00;10.90;;;;;;;2.74;100.00;98752.25;214111;1309;26496;-72
2022/11/15 04:02:45;;;;;;;24.40;11.40;;;;;;;2.71;100.00;98743.04;214259;1309;25450;-70
2022/11/15 04:08:06;;;;;;;38.90;16.30;;;;;;;2.65;100.00;98739.48;214028;1309;22466;-71
2022/11/15 04:13:27;;;;;;;23.70;10.50;;;;;;;2.57;100.00;98735.33;214204;1308;25283;-70
2022/11/15 04:24:11;;;;;;;29.00;12.20;;;;;;;2.47;100.00;98733.39;214071;1306;22525;-70
2022/11/15 04:24:28;;;;;;;27.50;11.40;;;;;;;2.44;100.00;98734.41;214209;1309;22523;-72
2022/11/15 04:29:49;;;;;;;23.20;10.90;;;;;;;2.41;100.00;98736.61;214202;1309;25306;-71
2022/11/15 04:35:09;;;;;;;25.90;12.00;;;;;;;2.31;100.00;98737.97;214215;1309;22932;-71
2022/11/15 04:40:31;;;;;;;24.30;11.10;;;;;;;2.31;100.00;98728.64;214036;1309;22544;-71
2022/11/15 04:45:52;;;;;;;23.60;11.20;;;;;;;2.22;100.00;98725.57;214195;1309;24313;-70
2022/11/15 04:51:14;;;;;;;19.80;11.00;;;;;;;2.12;100.00;98722.05;214206;1309;22467;-71
2022/11/15 04:56:34;;;;;;;17.80;9.80;;;;;;;2.04;100.00;98717.04;214012;1309;22470;-71
2022/11/15 05:01:55;;;;;;;22.90;11.60;;;;;;;2.01;100.00;98709.14;214002;1309;22595;-70
2022/11/15 05:07:16;;;;;;;26.00;11.90;;;;;;;1.99;100.00;98699.44;214198;1309;24350;-71
2022/11/15 05:12:36;;;;;;;27.60;12.50;;;;;;;2.01;100.00;98695.04;214199;1309;23276;-70
2022/11/15 05:18:00;;;;;;;19.60;9.50;;;;;;;2.02;100.00;98686.88;214242;1309;22473;-71
2022/11/15 05:23:20;;;;;;;27.80;13.20;;;;;;;2.00;100.00;98676.73;214179;1309;24320;-71
2022/11/15 05:28:41;;;;;;;28.70;13.80;;;;;;;1.97;100.00;98667.64;214122;1309;22607;-70
2022/11/15 05:34:04;;;;;;;29.70;12.90;;;;;;;1.94;100.00;98665.95;214247;1309;22731;-70
2022/11/15 05:39:25;;;;;;;36.10;13.70;;;;;;;1.89;100.00;98662.47;214086;1309;24519;-70
2022/11/15 05:44:49;;;;;;;27.40;12.50;;;;;;;1.86;100.00;98658.50;214040;1309;22562;-71
2022/11/15 05:50:15;;;;;;;26.00;11.70;;;;;;;1.84;100.00;98653.08;214154;1309;22508;-71
2022/11/15 05:55:38;;;;;;;31.30;13.50;;;;;;;1.79;100.00;98650.48;214056;1309;23733;-71
2022/11/15 06:01:00;;;;;;;27.50;12.60;;;;;;;1.74;100.00;98652.66;214028;1309;22597;-71
2022/11/15 06:06:21;;;;;;;27.60;13.30;;;;;;;1.71;100.00;98659.30;214033;1309;22479;-70
2022/11/15 06:11:41;;;;;;;36.10;16.10;;;;;;;1.66;100.00;98658.36;214171;1309;24285;-71
2022/11/15 06:17:02;;;;;;;29.20;13.40;;;;;;;1.65;100.00;98651.20;213966;1309;22476;-72
2022/11/15 06:22:30;;;;;;;32.40;15.80;;;;;;;1.67;100.00;98651.61;214200;1308;25406;-71
2022/11/15 06:27:52;;;;;;;35.40;17.70;;;;;;;1.73;100.00;98654.16;214250;1301;22509;-71
2022/11/15 06:33:13;;;;;;;38.20;17.50;;;;;;;1.83;100.00;98655.60;214196;1309;22461;-70
2022/11/15 06:38:33;;;;;;;40.40;19.90;;;;;;;1.96;100.00;98658.15;214076;1309;22474;-72
2022/11/15 06:43:54;;;;;;;44.50;22.10;;;;;;;2.08;100.00;98662.73;214410;1285;23827;-72
2022/11/15 06:49:14;;;;;;;39.60;20.00;;;;;;;2.23;100.00;98662.31;214863;1288;22627;-71
2022/11/15 06:54:35;;;;;;;41.50;22.10;;;;;;;2.35;100.00;98660.52;214859;1285;22610;-70
2022/11/15 06:59:56;;;;;;;37.10;18.90;;;;;;;2.53;100.00;98663.96;215072;1278;22513;-70
2022/11/15 07:05:16;;;;;;;36.40;19.10;;;;;;;2.74;100.00;98662.66;215230;1278;26492;-74
2022/11/15 07:10:37;;;;;;;38.10;19.30;;;;;;;2.95;100.00;98667.91;215589;1278;140477;-73
2022/11/15 07:16:02;;;;;;;36.00;19.90;;;;;;;3.11;100.00;98664.10;214818;1278;138595;-70
2022/11/15 07:21:23;;;;;;;29.00;17.20;;;;;;;3.30;100.00;98672.41;214639;1281;138309;-68
2022/11/15 07:26:47;;;;;;;31.60;17.30;;;;;;;3.50;100.00;98672.05;214807;1278;140488;-69
2022/11/15 07:32:09;;;;;;;32.40;18.80;;;;;;;3.70;100.00;98663.04;214625;1278;138412;-70
2022/11/15 07:37:29;;;;;;;29.30;17.00;;;;;;;3.90;100.00;98658.42;214624;1281;138327;-69
2022/11/15 07:42:52;;;;;;;35.00;19.00;;;;;;;4.16;100.00;98660.30;214541;1278;138373;-69
2022/11/15 07:48:13;;;;;;;39.50;22.10;;;;;;;4.53;100.00;98668.19;214894;1278;27637;-69
2022/11/15 07:53:33;;;;;;;38.60;22.80;;;;;;;5.12;100.00;98660.29;214639;1285;25301;-68
2022/11/15 07:58:54;;;;;;;43.30;22.80;;;;;;;5.45;100.00;98662.24;214577;1278;137945;-69
2022/11/15 08:04:15;;;;;;;42.10;24.20;;;;;;;5.68;100.00;98659.98;214592;1288;138230;-72
2022/11/15 08:09:36;;;;;;;44.20;24.90;;;;;;;5.87;100.00;98655.38;215306;1287;138444;-71
2022/11/15 08:14:56;;;;;;;44.30;24.70;;;;;;;5.95;100.00;98647.50;215124;1278;138426;-70
2022/11/15 08:20:18;;;;;;;46.80;24.00;;;;;;;6.09;100.00;98642.02;214481;1287;138535;-70
2022/11/15 08:25:39;;;;;;;41.10;23.50;;;;;;;6.28;100.00;98637.66;214692;1294;138483;-71
2022/11/15 08:31:00;;;;;;;38.30;23.30;;;;;;;6.46;100.00;98636.58;214686;1285;138397;-73
2022/11/15 08:36:21;;;;;;;49.60;26.50;;;;;;;6.68;100.00;98639.98;214874;1284;23219;-70
2022/11/15 08:41:42;;;;;;;38.20;20.40;;;;;;;6.88;100.00;98633.39;214845;1280;25117;-70
2022/11/15 08:47:03;;;;;;;30.70;18.60;;;;;;;7.14;100.00;98626.76;214611;1278;138096;-71
2022/11/15 08:52:23;;;;;;;32.70;19.10;;;;;;;7.42;100.00;98625.48;214936;1278;138318;-70
2022/11/15 08:57:45;;;;;;;28.00;17.10;;;;;;;7.69;100.00;98620.05;214941;1287;138999;-70
2022/11/15 09:03:07;;;;;;;31.40;17.70;;;;;;;7.95;100.00;98616.63;214732;1281;138860;-70
2022/11/15 09:08:30;;;;;;;28.10;16.00;;;;;;;8.23;100.00;98609.91;214841;1286;138540;-73
2022/11/15 09:14:12;;;;;;;26.60;15.60;;;;;;;8.57;100.00;98611.80;214952;1291;139079;-69
2022/11/15 09:19:33;;;;;;;34.70;17.60;;;;;;;8.93;100.00;98602.46;214497;1291;138725;-74
2022/11/15 09:24:53;;;;;;;33.50;18.90;;;;;;;9.35;100.00;98607.44;214636;1295;138468;-70
2022/11/15 09:30:14;;;;;;;29.10;16.70;;;;;;;9.81;100.00;98603.38;214633;1278;22688;-71
2022/11/15 09:35:34;;;;;;;22.00;13.30;;;;;;;10.23;99.33;98593.45;214466;1310;138369;-71
2022/11/15 09:41:14;;;;;;;27.20;15.90;;;;;;;10.59;97.66;98583.45;214705;1301;138683;-70
2022/11/15 09:46:45;;;;;;;25.50;14.60;;;;;;;10.93;96.90;98574.85;214704;1303;138277;-71
2022/11/15 09:52:22;;;;;;;25.70;15.00;;;;;;;11.22;95.25;98567.23;214743;1278;138991;-71
2022/11/15 09:57:32;;;;;;;23.10;14.80;;;;;;;11.34;93.66;98561.87;215061;1309;138487;-71
2022/11/15 10:02:47;;;;;;;;;;;;;;;11.42;92.60;98556.50;214641;1309;138557;-71
2022/11/15 10:08:16;;;;;;;27.80;14.40;;;;;;;11.48;91.95;98552.95;214830;1310;124579;-70
2022/11/15 10:13:21;;;;;;;26.10;13.60;;;;;;;11.53;91.47;98543.77;215027;1298;139084;-72
2022/11/15 10:18:52;;;;;;;24.30;14.00;;;;;;;11.51;90.97;98541.73;214670;1304;22471;-72
2022/11/15 10:23:54;;;;;;;24.60;14.60;;;;;;;11.48;91.26;98536.91;214620;1304;25136;-71
2022/11/15 10:28:56;;;;;;;23.60;13.50;;;;;;;11.42;90.71;98536.71;214672;1308;138260;-72
2022/11/15 10:34:14;;;;;;;26.50;14.00;;;;;;;11.37;91.12;98539.81;214607;1291;138541;-71
2022/11/15 10:39:15;;;;;;;21.20;12.60;;;;;;;11.34;91.19;98535.05;214584;1286;179970;-71
2022/11/15 10:44:29;;;;;;;18.70;10.90;;;;;;;11.36;91.64;98534.16;214627;1281;138451;-72
2022/11/15 10:49:32;;;;;;;19.10;10.90;;;;;;;11.39;91.39;98532.11;214485;1310;138849;-73
2022/11/15 10:54:40;;;;;;;14.90;9.90;;;;;;;11.43;91.52;98526.60;214878;1291;26389;-72
2022/11/15 10:59:49;;;;;;;19.70;11.50;;;;;;;11.40;90.11;98526.05;214506;1293;138543;-72
2022/11/15 11:04:52;;;;;;;25.10;15.20;;;;;;;11.36;89.88;98517.64;214745;1278;138432;-70
2022/11/15 11:10:18;;;;;;;40.40;26.50;;;;;;;11.39;90.50;98509.15;215101;1286;139505;-70
2022/11/15 11:15:45;;;;;;;23.10;13.90;;;;;;;11.45;90.21;98508.10;214685;1284;139400;-73
2022/11/15 11:21:02;;;;;;;16.90;11.30;;;;;;;11.44;89.89;98501.69;214819;1289;139160;-73
2022/11/15 11:26:07;;;;;;;18.50;10.90;;;;;;;11.49;89.60;98496.27;214878;1278;139246;-73
2022/11/15 11:31:21;;;;;;;19.10;11.00;;;;;;;11.75;90.17;98488.73;215078;1284;139234;-71
2022/11/15 11:36:57;;;;;;;20.10;11.90;;;;;;;12.12;89.68;98484.25;214792;1310;22487;-71
2022/11/15 11:42:22;;;;;;;16.20;10.40;;;;;;;12.49;88.88;98470.67;214862;1302;23234;-71
2022/11/15 11:47:33;;;;;;;20.70;11.90;;;;;;;12.85;88.01;98469.20;214505;1310;138777;-71
2022/11/15 11:52:49;;;;;;;24.90;12.10;;;;;;;13.12;87.14;98459.76;214583;1310;139064;-71
2022/11/15 11:58:13;;;;;;;22.90;14.40;;;;;;;13.41;87.12;98447.11;214652;1310;138956;-71
2022/11/15 12:03:14;;;;;;;20.90;12.60;;;;;;;13.65;86.50;98434.22;214525;1291;138592;-71
2022/11/15 12:08:26;;;;;;;21.40;12.20;;;;;;;13.79;85.49;98433.19;215123;1293;138709;-72
2022/11/15 12:13:34;;;;;;;26.50;14.00;;;;;;;13.85;84.38;98424.48;214951;1284;138582;-72
2022/11/15 12:18:37;;;;;;;22.90;13.50;;;;;;;13.75;83.89;98415.11;214623;1286;24046;-71
2022/11/15 12:23:49;;;;;;;19.50;12.50;;;;;;;13.55;83.01;98417.88;214855;1284;138446;-72
2022/11/15 12:29:15;;;;;;;19.10;12.50;;;;;;;13.35;81.85;98415.27;214997;1285;139763;-71
2022/11/15 12:34:20;;;;;;;21.10;13.20;;;;;;;13.17;82.58;98408.44;214428;1310;139437;-71
2022/11/15 12:40:00;;;;;;;32.50;19.80;;;;;;;13.08;82.30;98400.05;214755;1288;139339;-72
2022/11/15 12:45:31;;;;;;;26.90;17.00;;;;;;;13.05;82.28;98394.98;214814;1286;139151;-74
2022/11/15 12:50:51;;;;;;;26.70;14.90;;;;;;;13.04;82.78;98383.88;214681;1286;138576;-71
2022/11/15 12:56:02;;;;;;;23.80;12.50;;;;;;;12.99;83.01;98381.17;214717;1288;138610;-72
2022/11/15 13:01:07;;;;;;;21.70;13.10;;;;;;;12.93;83.36;98371.33;214955;1295;138662;-71
2022/11/15 13:06:58;;;;;;;21.40;13.60;;;;;;;12.88;83.36;98360.31;214709;1310;22459;-72
2022/11/15 13:12:34;;;;;;;21.30;12.50;;;;;;;12.81;83.72;98355.61;215587;1291;22599;-73
2022/11/15 13:17:40;;;;;;;20.60;11.80;;;;;;;12.76;84.07;98354.85;214585;1292;138669;-72
2022/11/15 13:22:50;;;;;;;20.70;13.10;;;;;;;12.70;84.10;98353.50;214850;1290;138939;-72
2022/11/15 13:27:54;;;;;;;18.40;11.80;;;;;;;12.60;84.21;98357.22;214671;1284;138968;-73
2022/11/15 13:33:00;;;;;;;25.60;15.30;;;;;;;12.54;84.34;98353.97;214739;1292;139333;-72
2022/11/15 13:38:04;;;;;;;23.50;14.10;;;;;;;12.43;84.36;98351.02;214530;1301;139317;-74
2022/11/15 13:43:35;;;;;;;24.40;13.50;;;;;;;12.38;84.65;98349.29;214592;1309;139520;-71
2022/11/15 13:48:38;;;;;;;25.40;14.00;;;;;;;12.38;84.93;98346.98;214680;1286;22579;-73
2022/11/15 13:53:46;;;;;;;22.50;12.60;;;;;;;12.40;85.07;98343.68;214726;1293;138857;-70
2022/11/15 13:58:48;;;;;;;18.40;12.00;;;;;;;12.45;85.46;98329.80;214626;1286;139285;-70
2022/11/15 14:03:57;;;;;;;18.20;11.20;;;;;;;12.49;85.57;98321.31;214746;1284;138881;-71
2022/11/15 14:09:08;;;;;;;18.30;11.60;;;;;;;12.45;85.44;98324.42;215024;1295;139234;-73
2022/11/15 14:14:15;;;;;;;32.60;16.70;;;;;;;12.39;85.36;98323.80;215068;1286;138688;-71
2022/11/15 14:19:19;;;;;;;34.30;17.40;;;;;;;12.26;85.65;98324.58;214570;1302;139332;-71
2022/11/15 14:24:21;;;;;;;34.00;17.30;;;;;;;12.10;86.09;98317.54;214826;1309;22954;-71
2022/11/15 14:29:32;;;;;;;28.30;16.10;;;;;;;11.99;86.34;98317.39;214823;1286;138952;-70
2022/11/15 14:34:34;;;;;;;32.30;16.40;;;;;;;11.91;86.57;98310.66;214659;1278;139427;-71
2022/11/15 14:39:36;;;;;;;35.40;18.40;;;;;;;11.81;86.74;98305.36;214864;1285;139672;-72
2022/11/15 14:44:38;;;;;;;35.60;18.70;;;;;;;11.71;86.87;98298.92;214621;1278;139698;-71
2022/11/15 14:49:47;;;;;;;32.30;16.80;;;;;;;11.59;86.91;98290.78;214624;1284;139576;-72
2022/11/15 14:54:48;;;;;;;33.30;18.50;;;;;;;11.47;87.16;98291.41;214702;1293;24456;-70
2022/11/15 14:59:50;;;;;;;33.50;18.30;;;;;;;11.36;87.36;98286.31;214729;1285;138763;-72
2022/11/15 15:04:53;;;;;;;35.00;18.70;;;;;;;11.26;87.58;98280.70;214659;1284;22467;-71
2022/11/15 15:09:55;;;;;;;35.80;17.40;;;;;;;11.19;87.96;98269.39;214300;1310;24404;-72
2022/11/15 15:15:25;;;;;;;37.90;19.10;;;;;;;11.09;88.17;98260.51;214426;1310;23797;-73
2022/11/15 15:20:27;;;;;;;40.50;18.90;;;;;;;11.00;88.47;98256.91;214343;1310;25300;-72
2022/11/15 15:25:34;;;;;;;37.40;18.70;;;;;;;10.91;88.47;98254.59;214326;1309;23247;-72
2022/11/15 15:30:36;;;;;;;31.80;18.00;;;;;;;10.78;88.72;98254.92;214144;1310;22490;-72
2022/11/15 15:35:38;;;;;;;35.20;18.70;;;;;;;10.66;88.99;98251.17;214318;1310;23325;-71
2022/11/15 15:40:40;;;;;;;39.50;21.40;;;;;;;10.54;89.13;98253.42;214324;1310;25394;-72
2022/11/15 15:45:42;;;;;;;43.80;21.70;;;;;;;10.41;89.22;98245.92;214315;1308;22972;-73
2022/11/15 15:50:44;;;;;;;48.30;24.20;;;;;;;10.29;89.59;98241.95;214149;1310;22537;-72
2022/11/15 15:55:46;;;;;;;45.10;22.60;;;;;;;10.16;89.87;98245.85;214299;1310;22479;-71
2022/11/15 16:00:48;;;;;;;48.40;24.10;;;;;;;10.04;89.84;98250.73;214305;1310;24059;-74
2022/11/15 16:05:50;;;;;;;42.50;23.90;;;;;;;9.98;90.39;98246.37;214311;1309;22529;-70
2022/11/15 16:10:52;;;;;;;42.00;23.10;;;;;;;9.93;90.38;98248.36;214314;1310;25335;-71
2022/11/15 16:15:54;;;;;;;48.50;24.40;;;;;;;9.92;90.56;98246.81;214253;1309;25351;-72
2022/11/15 16:20:56;;;;;;;55.10;24.90;;;;;;;9.92;90.78;98248.79;214102;1309;25261;-70
2022/11/15 16:25:58;;;;;;;47.70;24.00;;;;;;;9.91;90.99;98249.31;214364;1310;25222;-72
2022/11/15 16:31:05;;;;;;;50.90;25.20;;;;;;;9.92;91.31;98240.73;214320;1309;22469;-71
2022/11/15 16:36:25;;;;;;;51.30;26.50;;;;;;;9.92;91.19;98236.36;214294;1308;22827;-71
2022/11/15 16:41:32;;;;;;;54.50;28.60;;;;;;;9.93;91.47;98235.01;214304;1309;22473;-71
2022/11/15 16:46:34;;;;;;;64.20;30.80;;;;;;;9.95;91.54;98233.74;213988;1309;22530;-71
2022/11/15 16:51:36;;;;;;;65.80;29.60;;;;;;;9.97;91.74;98227.83;214234;1310;25297;-72
2022/11/15 16:56:39;;;;;;;77.60;38.60;;;;;;;10.00;91.89;98223.76;214317;1309;25335;-71
2022/11/15 17:01:49;;;;;;;83.40;40.00;;;;;;;10.01;91.85;98214.98;214155;1309;23245;-73
2022/11/15 17:06:51;;;;;;;82.20;40.40;;;;;;;10.02;91.79;98213.27;214240;1310;22518;-75
2022/11/15 17:11:53;;;;;;;69.50;35.70;;;;;;;10.02;91.79;98210.15;214361;1310;22690;-71
2022/11/15 17:16:55;;;;;;;75.40;37.30;;;;;;;9.97;91.52;98203.30;214222;1291;22611;-72
2022/11/15 17:21:57;;;;;;;73.90;37.90;;;;;;;9.96;91.59;98198.73;214338;1309;24391;-71
2022/11/15 17:26:59;;;;;;;75.30;37.80;;;;;;;9.96;91.73;98192.58;214177;1310;25445;-70
2022/11/15 17:32:01;;;;;;;80.70;38.00;;;;;;;9.94;91.68;98187.15;214344;1302;22464;-71
2022/11/15 17:37:03;;;;;;;74.40;36.70;;;;;;;9.93;91.57;98176.84;214173;1309;22482;-71
2022/11/15 17:42:05;;;;;;;68.90;35.10;;;;;;;9.90;91.44;98174.61;214274;1309;22468;-71
2022/11/15 17:47:07;;;;;;;71.00;36.50;;;;;;;9.79;91.00;98169.64;214374;1291;22491;-72
2022/11/15 17:52:09;;;;;;;64.90;32.70;;;;;;;9.71;91.11;98159.61;214407;1310;22483;-71
2022/11/15 17:57:11;;;;;;;78.70;35.00;;;;;;;9.68;91.19;98150.91;214195;1310;22515;-72
2022/11/15 18:02:13;;;;;;;72.30;36.30;;;;;;;9.67;91.41;98140.96;214323;1310;22602;-74
2022/11/15 18:07:17;;;;;;;58.70;29.10;;;;;;;9.66;91.49;98135.17;214212;1309;22729;-71
2022/11/15 18:12:19;;;;;;;70.50;34.30;;;;;;;9.57;91.29;98133.72;214434;1310;22916;-71
2022/11/15 18:17:22;;;;;;;66.80;32.50;;;;;;;9.49;91.22;98134.25;214124;1310;25234;-72
2022/11/15 18:22:24;;;;;;;68.50;35.00;;;;;;;9.39;91.08;98132.79;214006;1309;22478;-72
2022/11/15 18:27:26;;;;;;;76.20;36.50;;;;;;;9.36;91.39;98134.97;214406;1309;24475;-70
2022/11/15 18:32:28;;;;;;;71.70;37.00;;;;;;;9.38;91.69;98133.55;214225;1310;22597;-71
2022/11/15 18:37:29;;;;;;;70.00;35.70;;;;;;;9.38;91.87;98130.29;214374;1309;24306;-70
2022/11/15 18:42:31;;;;;;;76.00;36.00;;;;;;;9.39;91.86;98131.86;214287;1310;22471;-71
2022/11/15 18:47:33;;;;;;;66.50;33.50;;;;;;;9.39;91.87;98137.05;214491;1310;23887;-72
2022/11/15 18:52:35;;;;;;;72.90;35.70;;;;;;;9.38;91.94;98132.15;214189;1310;22543;-70
2022/11/15 18:57:37;;;;;;;70.50;34.60;;;;;;;9.40;91.95;98123.56;214361;1303;24293;-73
2022/11/15 19:02:39;;;;;;;63.70;32.60;;;;;;;9.41;91.94;98122.11;214294;1310;22528;-71
2022/11/15 19:07:41;;;;;;;62.00;32.50;;;;;;;9.37;91.66;98120.90;214195;1305;22517;-72
2022/11/15 19:12:42;;;;;;;60.60;33.80;;;;;;;9.35;91.67;98117.30;214383;1310;24475;-71
2022/11/15 19:17:44;;;;;;;72.90;37.10;;;;;;;9.35;91.53;98124.30;214305;1310;25220;-72
2022/11/15 19:22:46;;;;;;;59.80;31.50;;;;;;;9.36;91.79;98129.36;214186;1309;22487;-71
2022/11/15 19:27:48;;;;;;;74.00;38.80;;;;;;;9.37;91.95;98123.67;214194;1309;22489;-72
2022/11/15 19:32:50;;;;;;;76.50;40.10;;;;;;;9.42;92.15;98118.29;214277;1310;22479;-71
2022/11/15 19:37:52;;;;;;;75.70;37.90;;;;;;;9.49;92.25;98114.90;214144;1304;22613;-71
2022/11/15 19:42:54;;;;;;;77.10;37.60;;;;;;;9.54;92.37;98113.05;214044;1310;25347;-71
2022/11/15 19:47:58;;;;;;;77.80;37.10;;;;;;;9.57;92.21;98102.83;214188;1309;22493;-71
2022/11/15 19:53:00;;;;;;;78.70;37.50;;;;;;;9.60;92.05;98096.95;214210;1309;26394;-72
2022/11/15 19:58:02;;;;;;;70.70;36.20;;;;;;;9.63;92.07;98095.33;214301;1310;22482;-72
2022/11/15 20:03:03;;;;;;;71.30;34.10;;;;;;;9.64;92.15;98094.28;214292;1310;22536;-72
2022/11/15 20:08:05;;;;;;;62.90;30.10;;;;;;;9.65;92.10;98099.44;214050;1309;22951;-72
2022/11/15 20:13:07;;;;;;;54.90;30.30;;;;;;;9.59;91.62;98102.15;214122;1310;23133;-72
2022/11/15 20:18:09;;;;;;;64.90;32.70;;;;;;;9.47;91.67;98094.14;214274;1309;22553;-73
2022/11/15 20:23:12;;;;;;;77.40;35.50;;;;;;;9.38;92.05;98089.18;214308;1310;22765;-73
2022/11/15 20:28:18;;;;;;;70.50;35.80;;;;;;;9.35;92.44;98081.48;214007;1309;22514;-73
2022/11/15 20:33:21;;;;;;;61.20;31.50;;;;;;;9.37;92.70;98078.02;214049;1309;23734;-71
2022/11/15 20:38:23;;;;;;;71.30;38.30;;;;;;;9.31;92.60;98081.46;214132;1310;22867;-69
2022/11/15 20:43:25;;;;;;;72.80;37.50;;;;;;;9.24;92.69;98082.27;214150;1309;22485;-71
2022/11/15 20:48:27;;;;;;;71.40;35.80;;;;;;;9.17;92.87;98082.20;214142;1310;22476;-71
2022/11/15 20:53:29;;;;;;;64.10;34.30;;;;;;;9.11;92.91;98075.94;214183;1310;25350;-71
2022/11/15 20:58:33;;;;;;;66.20;34.70;;;;;;;9.05;93.15;98072.55;214069;1309;25362;-72
2022/11/15 21:03:36;;;;;;;64.10;32.60;;;;;;;9.03;93.30;98072.41;214147;1309;25403;-72
2022/11/15 21:14:00;;;;;;;65.70;32.10;;;;;;;9.02;93.80;98059.17;214315;1309;24127;-72
2022/11/15 21:19:09;;;;;;;63.90;32.20;;;;;;;9.03;93.71;98050.55;213908;1310;26494;-71
2022/11/15 21:24:10;;;;;;;70.20;35.30;;;;;;;9.03;93.86;98046.77;214211;1302;22465;-70
2022/11/15 21:29:15;;;;;;;74.10;36.20;;;;;;;9.02;93.93;98042.88;214230;1310;22735;-72
2022/11/15 21:34:18;;;;;;;72.70;36.10;;;;;;;9.01;94.05;98037.59;214367;1310;23162;-71
2022/11/15 21:39:20;;;;;;;70.70;36.20;;;;;;;9.00;94.16;98028.85;214214;1306;22582;-72
2022/11/15 21:44:22;;;;;;;85.90;38.50;;;;;;;8.98;94.26;98021.15;214395;1309;22610;-72
2022/11/15 21:49:24;;;;;;;76.60;39.40;;;;;;;8.99;94.50;98012.64;214309;1310;22529;-71
2022/11/15 21:54:26;;;;;;;81.80;40.60;;;;;;;8.99;94.41;98006.08;214181;1310;22468;-72
2022/11/15 21:59:28;;;;;;;91.60;45.00;;;;;;;8.99;94.69;98003.44;214170;1310;22527;-71
2022/11/15 22:04:30;;;;;;;93.80;44.90;;;;;;;9.04;95.09;98010.07;214369;1310;22480;-71
2022/11/15 22:09:36;;;;;;;97.40;46.50;;;;;;;9.11;95.26;98007.60;214116;1310;22468;-70
2022/11/15 22:14:39;;;;;;;92.50;44.70;;;;;;;9.16;95.23;98000.44;214298;1310;22497;-72
2022/11/15 22:19:40;;;;;;;100.00;46.40;;;;;;;9.21;95.27;97987.52;214186;1309;22487;-71
2022/11/15 22:24:53;;;;;;;92.50;45.70;;;;;;;9.24;95.20;97981.67;214272;1310;22476;-72
2022/11/15 22:29:55;;;;;;;83.90;40.20;;;;;;;9.27;95.26;97976.45;214321;1310;22490;-70
2022/11/15 22:34:57;;;;;;;84.50;41.20;;;;;;;9.24;94.80;97970.35;214154;1310;22603;-72
2022/11/15 22:39:59;;;;;;;84.80;41.50;;;;;;;9.19;94.72;97963.50;214282;1310;140967;-71
2022/11/15 22:45:01;;;;;;;94.70;43.50;;;;;;;9.16;94.84;97962.06;214303;1309;22609;-72
2022/11/15 22:50:05;;;;;;;87.00;40.20;;;;;;;9.17;94.99;97956.83;214161;1306;22475;-71
2022/11/15 22:55:07;;;;;;;76.90;38.50;;;;;;;9.19;95.08;97950.71;214204;1310;24399;-71
2022/11/15 23:00:15;;;;;;;73.80;37.70;;;;;;;9.21;95.02;97944.02;214175;1310;23967;-72
2022/11/15 23:05:17;;;;;;;74.40;35.90;;;;;;;9.19;94.81;97938.65;214105;1310;22460;-70
2022/11/15 23:21:10;;;;;;;69.60;35.30;;;;;;;9.08;95.01;97915.63;214290;1306;22530;-72
2022/11/15 23:26:12;;;;;;;66.80;32.50;;;;;;;9.08;94.94;97911.85;214318;1310;25390;-71
2022/11/15 23:36:35;;;;;;;63.20;34.90;;;;;;;8.96;94.71;97899.85;214365;1309;24107;-71
2022/11/15 23:41:37;;;;;;;70.90;36.40;;;;;;;8.96;95.11;97896.17;214085;1310;25465;-73
2022/11/15 23:46:39;;;;;;;70.10;34.20;;;;;;;8.98;95.18;97895.81;214312;1309;22632;-71
2022/11/15 23:51:41;;;;;;;70.40;35.30;;;;;;;8.95;95.04;97895.00;214252;1309;22469;-71
2022/11/15 23:56:43;;;;;;;69.10;34.60;;;;;;;8.88;94.80;97891.41;214207;1310;24385;-71
